»·PEaware :: WR3470 CYYZ-CYOW

WR3470 :: CYYZ-CYOW

FLIGHT INFORMATION

Flight Status: Arrived
Operator: Unknown
More flights by this operator :: More flights under this callsign
Pilot: Alan S. (10569)
Aircraft: DEHAVILLAND DASH 8 400
(DH8D)
More flights by this aircraft type
Origin: CYYZ Toronto/Pearson Intl
Canada
Destination: CYOW Ottawa/Macdonald-Cartier Intl
Canada
More flights between these airports :: More routes between these airports
Route: BOMET7 MIVOK CAPTL4
File this flight plan on PilotEdge
Remarks:
Altitude:
(Current/Filed)
21,000ft
Speed:
(Current/Filed)
311kts
Departed: 16-Feb-18 01:43 PM
Arrived: 16-Feb-18 02:33 PM
Distance/Time
Traveled:
196nm/0:50
Distance/Time
To Go:
Arrived

Flight Plot

Page will automatically refresh every two minutes.

Flight plan parsing failed; only flown route is shown


Map Options




Map Legend


Flown Route
Filed Route
Departure Airport
Arrival Airport
Navaid (VOR, NDB)
Fix

Horizontal Profiles

Position Reports

Time Latitude Longitude Heading Altitude Ground
Speed
16-Feb-18 13:19 43.687379 -79.622760 115 562ft 0kts
16-Feb-18 13:20 43.687380 -79.622760 115 562ft 0kts
16-Feb-18 13:21 43.687379 -79.622760 115 562ft 0kts
16-Feb-18 13:22 43.687379 -79.622760 115 562ft 0kts
16-Feb-18 13:23 43.687379 -79.622760 115 562ft 0kts
16-Feb-18 13:24 43.687379 -79.622760 115 562ft 0kts
16-Feb-18 13:25 43.687379 -79.622760 115 562ft 0kts
16-Feb-18 13:26 43.687379 -79.622760 115 562ft 0kts
16-Feb-18 13:27 43.687379 -79.622760 115 562ft 0kts
16-Feb-18 13:28 43.687379 -79.622760 115 562ft 0kts
16-Feb-18 13:29 43.687379 -79.622760 115 562ft 0kts
16-Feb-18 13:30 43.687379 -79.622760 115 562ft 0kts
16-Feb-18 13:31 43.687379 -79.622760 115 562ft 0kts
16-Feb-18 13:32 43.687379 -79.622760 115 562ft 0kts
16-Feb-18 13:33 43.687379 -79.622760 115 562ft 0kts
16-Feb-18 13:34 43.687379 -79.622760 115 562ft 0kts
16-Feb-18 13:35 43.687379 -79.622760 115 562ft 0kts
16-Feb-18 13:36 43.687376 -79.622757 114 562ft 0kts
16-Feb-18 13:37 43.687595 -79.623165 167 561ft 2kts
16-Feb-18 13:38 43.687808 -79.623096 207 562ft 0kts
16-Feb-18 13:39 43.687807 -79.623096 207 561ft 0kts
16-Feb-18 13:40 43.687807 -79.623096 207 561ft 0kts
16-Feb-18 13:41 43.687807 -79.623096 208 562ft 0kts
16-Feb-18 13:42 43.687785 -79.623115 213 561ft 1kts
16-Feb-18 13:43 43.685821 -79.626088 217 561ft 11kts
16-Feb-18 13:44 43.683212 -79.625426 136 567ft 11kts
16-Feb-18 13:45 43.680413 -79.621905 137 571ft 15kts
16-Feb-18 13:46 43.676863 -79.617990 136 565ft 20kts
16-Feb-18 13:47 43.672523 -79.612340 136 555ft 21kts
16-Feb-18 13:48 43.671535 -79.612396 310 552ft 0kts
16-Feb-18 13:49 43.671527 -79.614058 230 554ft 17kts
16-Feb-18 13:50 43.685273 -79.633910 316 1116ft 143kts
16-Feb-18 13:51 43.716726 -79.673605 325 3353ft 174kts
16-Feb-18 13:52 43.754546 -79.705066 329 5695ft 181kts
16-Feb-18 13:53 43.796006 -79.692610 71 7250ft 252kts
16-Feb-18 13:54 43.776710 -79.596620 108 9678ft 266kts
16-Feb-18 13:55 43.776003 -79.500063 74 11945ft 272kts
16-Feb-18 13:56 43.778125 -79.393144 73 14004ft 290kts
16-Feb-18 13:57 43.794640 -79.283980 68 16039ft 304kts
16-Feb-18 13:58 43.814198 -79.169414 69 18065ft 317kts
16-Feb-18 13:59 43.830010 -79.048744 76 19900ft 331kts
16-Feb-18 14:00 43.841860 -78.919970 78 21051ft 364kts
16-Feb-18 14:01 43.866512 -78.778771 56 21049ft 399kts
16-Feb-18 14:02 43.918860 -78.640144 54 21026ft 420kts
16-Feb-18 14:03 43.973900 -78.497259 54 20993ft 429kts
16-Feb-18 14:04 44.029637 -78.351946 54 20984ft 432kts
16-Feb-18 14:05 44.084216 -78.209076 55 20969ft 429kts
16-Feb-18 14:06 44.138730 -78.065637 54 20975ft 427kts
16-Feb-18 14:07 44.197748 -77.925399 47 20970ft 420kts
16-Feb-18 14:08 44.262572 -77.791793 47 20951ft 421kts
16-Feb-18 14:09 44.326995 -77.657959 47 20944ft 421kts
16-Feb-18 14:10 44.392377 -77.523760 46 20946ft 421kts
16-Feb-18 14:11 44.458096 -77.390535 46 20948ft 421kts
16-Feb-18 14:12 44.515516 -77.273647 47 20934ft 421kts
16-Feb-18 14:13 44.581255 -77.139239 47 20517ft 424kts
16-Feb-18 14:14 44.646847 -77.004471 47 19115ft 417kts
16-Feb-18 14:15 44.710564 -76.872984 48 17701ft 404kts
16-Feb-18 14:16 44.772202 -76.745249 48 16308ft 393kts
16-Feb-18 14:17 44.830500 -76.623882 48 14966ft 384kts
16-Feb-18 14:18 44.888805 -76.501981 49 13595ft 375kts
16-Feb-18 14:19 44.945718 -76.383603 45 12377ft 357kts
16-Feb-18 14:20 44.994799 -76.293274 46 11415ft 346kts
16-Feb-18 14:21 45.060986 -76.171531 46 10181ft 332kts
16-Feb-18 14:22 45.115539 -76.070799 47 9141ft 323kts
16-Feb-18 14:23 45.160057 -75.988345 47 8289ft 317kts
16-Feb-18 14:24 45.209838 -75.887406 73 7224ft 323kts
16-Feb-18 14:25 45.193079 -75.749895 105 6026ft 294kts
16-Feb-18 14:26 45.178518 -75.685461 106 5396ft 282kts
16-Feb-18 14:27 45.157076 -75.593661 105 4974ft 253kts
16-Feb-18 14:28 45.128018 -75.503344 125 4970ft 261kts
16-Feb-18 14:29 45.084226 -75.420875 126 4976ft 266kts
16-Feb-18 14:30 45.052964 -75.331508 67 4986ft 261kts
16-Feb-18 14:31 45.100643 -75.263260 19 4306ft 239kts
16-Feb-18 14:32 45.140758 -75.311236 296 3440ft 210kts
16-Feb-18 14:33 45.168307 -75.380248 306 2566ft 195kts
16-Feb-18 14:34 45.197336 -75.435952 307 2608ft 164kts
16-Feb-18 14:35 45.223825 -75.486790 307 2621ft 163kts
16-Feb-18 14:36 45.250399 -75.537769 308 2342ft 154kts
16-Feb-18 14:37 45.273439 -75.582233 308 1566ft 128kts
16-Feb-18 14:38 45.292064 -75.618342 308 1028ft 98kts
16-Feb-18 14:39 45.308546 -75.650286 307 490ft 98kts
16-Feb-18 14:40 45.319399 -75.671468 307 377ft 27kts
16-Feb-18 14:41 45.320780 -75.670211 127 376ft 0kts
16-Feb-18 14:42 45.320994 -75.669636 36 375ft 10kts
16-Feb-18 14:43 45.321990 -75.668535 36 374ft 0kts

Navigation Log

Ident Type
Flight plan parsing failed, navigation log unavailable